| time (UTC) | temp F | wind direction | speed MPH | gust MPH | rain 1hr in | rain 24hr in | rain mn in | humidity % | barometer mb |
| 20260902000058 | 93 | 135 | 7.0 | 13.0 | 0.00 | 0.00 | 0.00 | 34 | 992.1 |
| 20260901234605 | 92 | 92 | 8.0 | 16.0 | 0.00 | 0.00 | 0.00 | 33 | 992.0 |
| 20260901233104 | 94 | 74 | 10.0 | 17.0 | 0.00 | 0.00 | 0.00 | 33 | 992.1 |
| 20260901231552 | 93 | 137 | 6.0 | 13.0 | 0.00 | 0.00 | 0.00 | 31 | 992.3 |
| 20260901230049 | 94 | 82 | 9.0 | 17.0 | 0.00 | 0.00 | 0.00 | 32 | 992.4 |
| 20260901223007 | 95 | 118 | 10.0 | 16.0 | 0.00 | 0.00 | 0.00 | 32 | 992.3 |
| 20260901221506 | 95 | 128 | 9.0 | 17.0 | 0.00 | 0.00 | 0.00 | 30 | 992.3 |
| 20260901220005 | 95 | 84 | 12.0 | 19.0 | 0.00 | 0.00 | 0.00 | 29 | 992.4 |
| 20260901214607 | 96 | 133 | 9.0 | 16.0 | 0.00 | 0.00 | 0.00 | 30 | 992.5 |
| 20260901213135 | 95 | 91 | 11.0 | 19.0 | 0.00 | 0.00 | 0.00 | 30 | 992.6 |
| 20260901211555 | 95 | 98 | 8.0 | 18.0 | 0.00 | 0.00 | 0.00 | 32 | 992.6 |
| 20260901210053 | 95 | 58 | 9.0 | 16.0 | 0.00 | 0.00 | 0.00 | 33 | 992.7 |
| 20260901204551 | 95 | 117 | 10.0 | 20.0 | 0.00 | 0.00 | 0.00 | 32 | 992.7 |
| 20260901203114 | 95 | 89 | 11.0 | 18.0 | 0.00 | 0.00 | 0.00 | 33 | 992.9 |
| 20260901201555 | 95 | 102 | 10.0 | 18.0 | 0.00 | 0.00 | 0.00 | 33 | 993.0 |
| 20260901200045 | 95 | 63 | 10.0 | 17.0 | 0.00 | 0.00 | 0.00 | 33 | 993.1 |
| 20260901194544 | 94 | 92 | 11.0 | 17.0 | 0.00 | 0.00 | 0.00 | 32 | 993.1 |
| 20260901193042 | 94 | 83 | 8.0 | 14.0 | 0.00 | 0.00 | 0.00 | 32 | 993.3 |
| 20260901191537 | 93 | 106 | 9.0 | 16.0 | 0.00 | 0.00 | 0.00 | 31 | 993.4 |
| 20260901190032 | 93 | 85 | 8.0 | 14.0 | 0.00 | 0.00 | 0.00 | 33 | 993.4 |
| 20260901184528 | 92 | 46 | 6.0 | 13.0 | 0.00 | 0.00 | 0.00 | 36 | 993.5 |
| 20260901183024 | 91 | 121 | 7.0 | 13.0 | 0.00 | 0.00 | 0.00 | 38 | 993.7 |
| 20260901181526 | 90 | 96 | 3.0 | 12.0 | 0.00 | 0.00 | 0.00 | 39 | 993.9 |
| 20260901180019 | 89 | 53 | 5.0 | 10.0 | 0.00 | 0.00 | 0.00 | 40 | 994.0 |
| 20260901174513 | 88 | 38 | 2.0 | 9.0 | 0.00 | 0.00 | 0.00 | 42 | 994.1 |
| 20260901173009 | 87 | 84 | 3.0 | 10.0 | 0.00 | 0.00 | 0.00 | 45 | 994.2 |
| 20260901171505 | 86 | 88 | 4.0 | 9.0 | 0.00 | 0.00 | 0.00 | 46 | 994.1 |
| 20260901170002 | 85 | 101 | 4.0 | 9.0 | 0.00 | 0.00 | 0.00 | 48 | 994.0 |
| 20260901164603 | 84 | 84 | 5.0 | 9.0 | 0.00 | 0.00 | 0.00 | 50 | 994.0 |
| 20260901163054 | 83 | 60 | 5.0 | 10.0 | 0.00 | 0.00 | 0.00 | 48 | 994.0 |
| 20260901161551 | 82 | 92 | 2.0 | 4.0 | 0.00 | 0.00 | 0.00 | 49 | 993.8 |
| 20260901160046 | 80 | 143 | 0.0 | 2.0 | 0.00 | 0.00 | 0.00 | 52 | 993.7 |
| 20260901154542 | 78 | 350 | 0.0 | 2.0 | 0.00 | 0.00 | 0.00 | 56 | 994.0 |
| 20260901153044 | 76 | 349 | 0.0 | 2.0 | 0.00 | 0.00 | 0.00 | 60 | 994.0 |
| 20260901151532 | 74 | 327 | 1.0 | 2.0 | 0.00 | 0.00 | 0.00 | 63 | 994.1 |
| 20260901150029 | 71 | 328 | 0.0 | 2.0 | 0.00 | 0.00 | 0.00 | 68 | 994.2 |